Terminal Aerodrome Forecast
Issued by NWS Wakefield, VA

Home | Current Version | Previous Version | Text Only | Print | Product List | Glossary On
Versions: 1 2 3 4 5 6 7 8 9 10 11 12 13 14 15 16
000
FTUS41 KAKQ 291138
TAFECG
TAF
KECG 291138Z 2912/3012 11006KT P6SM SCT015 BKN035
     FM291500 12008KT 4SM RA BR BKN050 OVC120=

USA.gov is the U.S. government's official web portal to all federal, state and local government web resources and services.